createdAt,value
2018-03-24T00:01:35.609Z,7.84
2018-03-24T00:03:37.238Z,7.85
2018-03-24T00:05:39.574Z,7.84
2018-03-24T00:07:41.235Z,7.93
2018-03-24T00:09:43.554Z,7.93
2018-03-24T00:11:45.203Z,7.85
2018-03-24T00:13:46.975Z,7.78
2018-03-24T00:15:48.634Z,7.96
2018-03-24T00:17:50.860Z,7.79
2018-03-24T00:19:52.483Z,7.84
2018-03-24T00:21:54.215Z,7.99
2018-03-24T00:23:55.933Z,8.00
2018-03-24T00:25:59.255Z,7.96
2018-03-24T00:28:00.898Z,8.03
2018-03-24T00:30:02.618Z,8.02
2018-03-24T00:32:05.028Z,8.10
2018-03-24T00:34:06.751Z,8.02
2018-03-24T00:36:09.150Z,8.00
2018-03-24T00:38:10.839Z,8.03
2018-03-24T00:40:12.939Z,8.07
2018-03-24T00:42:14.664Z,8.20
2018-03-24T00:44:16.410Z,8.29
2018-03-24T00:46:18.082Z,8.22
2018-03-24T00:48:19.877Z,8.22
2018-03-24T00:50:21.543Z,8.22
2018-03-24T00:52:23.995Z,8.12
2018-03-24T00:54:26.431Z,8.10
2018-03-24T00:56:28.089Z,8.04
2018-03-24T00:58:29.842Z,7.81
2018-03-24T01:00:31.481Z,7.85
2018-03-24T01:02:33.321Z,7.94
2018-03-24T01:04:35.805Z,8.03
2018-03-24T01:06:37.449Z,7.99
2018-03-24T01:08:39.224Z,8.10
2018-03-24T01:10:41.663Z,8.02
2018-03-24T01:12:43.775Z,8.07
2018-03-24T01:14:45.344Z,8.20
2018-03-24T01:16:47.825Z,8.14
2018-03-24T01:18:49.402Z,8.32
2018-03-24T01:20:51.649Z,8.33
2018-03-24T01:22:53.333Z,8.26
2018-03-24T01:24:55.036Z,8.40
2018-03-24T01:26:56.633Z,8.44
2018-03-24T01:28:58.883Z,8.40
2018-03-24T01:31:00.601Z,8.45
2018-03-24T01:33:02.271Z,8.47
2018-03-24T01:35:04.048Z,8.44
2018-03-24T01:37:05.721Z,8.60
2018-03-24T01:39:07.444Z,8.58
2018-03-24T01:41:09.018Z,8.54
2018-03-24T01:43:10.701Z,8.47
2018-03-24T01:45:12.518Z,8.47
2018-03-24T01:47:14.132Z,8.30
2018-03-24T01:49:16.634Z,8.18
2018-03-24T01:51:18.373Z,8.26
2018-03-24T01:53:19.962Z,8.26
2018-03-24T01:55:21.747Z,8.07
2018-03-24T01:57:23.384Z,8.00
2018-03-24T01:59:25.087Z,8.08
2018-03-24T02:01:27.392Z,8.17
2018-03-24T02:03:29.151Z,8.11
2018-03-24T02:05:30.925Z,8.18
2018-03-24T02:07:32.631Z,8.17
2018-03-24T02:09:34.432Z,8.20
2018-03-24T02:11:36.146Z,8.14
2018-03-24T02:13:38.634Z,8.21
2018-03-24T02:15:40.348Z,8.15
2018-03-24T02:17:42.032Z,8.17
2018-03-24T02:19:43.786Z,8.17
2018-03-24T02:21:45.529Z,8.14
2018-03-24T02:23:48.324Z,8.07
2018-03-24T02:25:50.050Z,8.02
2018-03-24T02:27:51.776Z,8.20
2018-03-24T02:29:53.488Z,8.28
2018-03-24T02:31:55.140Z,8.35
2018-03-24T02:33:57.716Z,8.45
2018-03-24T02:36:00.105Z,8.54
2018-03-24T02:38:01.726Z,8.44
2018-03-24T02:40:03.868Z,8.26
2018-03-24T02:42:05.602Z,8.26
2018-03-24T02:44:07.315Z,8.28
2018-03-24T02:46:09.057Z,8.17
2018-03-24T02:48:10.759Z,8.29
2018-03-24T02:50:12.596Z,8.29
2018-03-24T02:52:14.791Z,8.29
2018-03-24T02:54:16.579Z,8.22
2018-03-24T02:56:18.273Z,8.36
2018-03-24T02:58:19.982Z,8.36
2018-03-24T03:00:21.668Z,8.47
2018-03-24T03:02:23.385Z,8.51
2018-03-24T03:04:25.625Z,8.53
2018-03-24T03:06:27.413Z,8.58
2018-03-24T03:08:29.105Z,8.63
2018-03-24T03:10:31.268Z,8.55
2018-03-24T03:12:32.867Z,8.57
2018-03-24T03:14:35.217Z,8.62
2018-03-24T03:16:37.018Z,8.69
2018-03-24T03:18:38.706Z,8.73
2018-03-24T03:20:40.491Z,8.68
2018-03-24T03:22:42.272Z,8.73
2018-03-24T03:24:44.045Z,8.76
2018-03-24T03:26:45.885Z,8.71
2018-03-24T03:28:47.934Z,8.71
2018-03-24T03:30:50.118Z,8.55
2018-03-24T03:32:51.716Z,8.58
2018-03-24T03:34:53.775Z,8.58
2018-03-24T03:36:55.460Z,8.65
2018-03-24T03:38:57.216Z,8.62
2018-03-24T03:40:59.578Z,8.47
2018-03-24T03:43:01.297Z,8.50
2018-03-24T03:45:03.578Z,8.47
2018-03-24T03:47:05.253Z,8.40
2018-03-24T03:49:06.941Z,8.28
2018-03-24T03:51:09.329Z,8.29
2018-03-24T03:53:11.073Z,8.14
2018-03-24T03:55:12.751Z,8.02
2018-03-24T03:57:15.017Z,8.04
2018-03-24T03:59:16.586Z,8.03
2018-03-24T04:01:18.175Z,7.94
2018-03-24T04:03:19.965Z,7.84
2018-03-24T04:05:21.673Z,7.87
2018-03-24T04:07:23.381Z,7.85
2018-03-24T04:09:25.099Z,7.97
2018-03-24T04:11:26.785Z,7.97
2018-03-24T04:13:28.555Z,7.87
2018-03-24T04:15:30.183Z,7.87
2018-03-24T04:17:31.924Z,7.77
2018-03-24T04:19:33.733Z,7.78
2018-03-24T04:21:35.378Z,7.69
2018-03-24T04:23:37.750Z,7.60
2018-03-24T04:25:40.019Z,7.66
2018-03-24T04:27:42.606Z,7.63
2018-03-24T04:29:44.266Z,7.62
2018-03-24T04:31:45.952Z,7.58
2018-03-24T04:33:47.614Z,7.69
2018-03-24T04:35:49.362Z,7.60
2018-03-24T04:38:31.040Z,7.75
2018-03-24T04:40:33.491Z,7.82
2018-03-24T04:42:35.049Z,7.78
2018-03-24T04:44:36.508Z,7.79
2018-03-24T04:46:38.025Z,7.78
2018-03-24T04:48:39.666Z,7.72
2018-03-24T04:50:41.298Z,7.78
2018-03-24T04:52:43.087Z,7.59
2018-03-24T04:54:44.742Z,7.58
2018-03-24T04:56:46.490Z,7.56
2018-03-24T04:58:48.058Z,7.47
2018-03-24T05:00:49.921Z,7.56
2018-03-24T05:02:51.733Z,7.56
2018-03-24T05:04:53.552Z,7.58
2018-03-24T05:07:36.385Z,7.42
2018-03-24T05:09:37.987Z,7.09
2018-03-24T05:11:39.386Z,7.04
2018-03-24T05:13:40.905Z,7.13
2018-03-24T05:16:23.459Z,7.13
2018-03-24T05:18:25.565Z,7.13
2018-03-24T05:20:27.136Z,7.09
2018-03-24T05:22:28.944Z,7.13
2018-03-24T05:24:30.369Z,7.16
2018-03-24T05:26:32.092Z,7.17
2018-03-24T05:29:14.928Z,7.16
2018-03-24T05:31:16.777Z,7.17
2018-03-24T05:33:18.316Z,7.23
2018-03-24T05:35:19.838Z,7.23
2018-03-24T05:37:21.358Z,7.26
2018-03-24T05:39:23.039Z,7.23
2018-03-24T05:41:24.887Z,7.20
2018-03-24T05:43:26.550Z,7.15
2018-03-24T05:45:28.201Z,7.26
2018-03-24T05:47:29.975Z,7.15
2018-03-24T05:49:31.733Z,7.22
2018-03-24T05:51:33.530Z,7.24
2018-03-24T05:53:35.224Z,7.29
2018-03-24T05:56:17.797Z,7.32
2018-03-24T05:58:19.223Z,7.29
2018-03-24T06:00:20.780Z,7.31
2018-03-24T06:02:22.291Z,7.27
2018-03-24T06:04:23.897Z,7.34
2018-03-24T06:06:25.328Z,7.38
2018-03-24T06:08:26.894Z,7.34
2018-03-24T06:10:28.618Z,7.47
2018-03-24T06:12:30.379Z,7.50
2018-03-24T06:14:32.357Z,7.52
2018-03-24T06:16:34.105Z,7.56
2018-03-24T06:18:35.965Z,7.55
2018-03-24T06:20:37.790Z,7.58
2018-03-24T06:22:39.461Z,7.58
2018-03-24T06:25:22.976Z,7.63
2018-03-24T06:27:24.487Z,7.63
2018-03-24T06:29:26.118Z,7.71
2018-03-24T06:31:27.746Z,7.58
2018-03-24T06:33:29.432Z,7.60
2018-03-24T06:35:31.226Z,7.62
2018-03-24T06:37:32.830Z,7.72
2018-03-24T06:39:34.594Z,7.72
2018-03-24T06:41:36.237Z,7.62
2018-03-24T06:43:37.916Z,7.66
2018-03-24T06:46:21.228Z,7.55
2018-03-24T06:48:23.130Z,7.42
2018-03-24T06:50:24.661Z,7.44
2018-03-24T06:52:26.382Z,7.32
2018-03-24T06:54:28.270Z,7.24
2018-03-24T06:56:30.124Z,7.50
2018-03-24T06:58:32.112Z,7.77
2018-03-24T07:00:34.015Z,8.28
2018-03-24T07:02:35.728Z,9.06
2018-03-24T07:04:37.664Z,10.15
2018-03-24T07:06:39.335Z,11.41
2018-03-24T07:08:41.252Z,12.34
2018-03-24T07:10:43.153Z,12.67
2018-03-24T07:12:45.063Z,12.20
2018-03-24T07:14:46.834Z,11.17
2018-03-24T07:16:48.683Z,10.36
2018-03-24T07:18:50.521Z,10.12
2018-03-24T07:20:52.311Z,9.89
2018-03-24T07:22:54.196Z,9.56
2018-03-24T07:25:38.082Z,9.71
2018-03-24T07:27:40.126Z,9.75
2018-03-24T07:29:42.439Z,10.18
2018-03-24T07:31:44.135Z,10.37
2018-03-24T07:33:45.617Z,10.56
2018-03-24T07:35:47.459Z,10.89
2018-03-24T07:37:49.390Z,10.96
2018-03-24T07:39:51.132Z,12.08
2018-03-24T07:41:52.961Z,13.27
2018-03-24T07:44:35.409Z,13.30
2018-03-24T07:46:37.143Z,14.25
2018-03-24T07:48:38.711Z,15.21
2018-03-24T07:50:40.593Z,15.24
2018-03-24T07:52:42.350Z,14.78
2018-03-24T07:54:44.260Z,14.90
2018-03-24T07:56:46.196Z,15.60
2018-03-24T07:58:48.312Z,15.26
2018-03-24T08:00:50.546Z,15.02
2018-03-24T08:02:52.669Z,16.09
2018-03-24T08:04:55.095Z,16.67
2018-03-24T08:06:56.898Z,17.25
2018-03-24T08:08:58.739Z,16.67
2018-03-24T08:11:00.857Z,16.90
2018-03-24T08:13:45.820Z,18.49
2018-03-24T08:15:49.086Z,18.82
2018-03-24T08:17:51.211Z,19.36
2018-03-24T08:19:53.021Z,19.39
2018-03-24T08:21:55.263Z,18.55
2018-03-24T08:23:57.350Z,17.88
2018-03-24T08:25:59.381Z,16.49
2018-03-24T08:28:01.245Z,16.14
2018-03-24T08:30:03.303Z,15.54
2018-03-24T08:32:05.226Z,15.06
2018-03-24T08:34:07.183Z,14.56
2018-03-24T08:36:09.166Z,14.14
2018-03-24T08:38:11.262Z,13.80
2018-03-24T08:40:13.183Z,13.63
2018-03-24T08:42:14.982Z,13.22
2018-03-24T08:44:16.741Z,12.84
2018-03-24T08:46:18.733Z,12.71
2018-03-24T08:48:20.781Z,12.82
2018-03-24T08:50:23.088Z,12.81
2018-03-24T08:53:09.378Z,12.08
2018-03-24T08:55:11.216Z,12.08
2018-03-24T08:57:13.254Z,11.72
2018-03-24T08:59:15.288Z,11.70
2018-03-24T09:01:17.020Z,11.64
2018-03-24T09:03:19.157Z,11.74
2018-03-24T09:05:21.323Z,11.87
2018-03-24T09:07:23.369Z,11.68
2018-03-24T09:09:25.068Z,11.75
2018-03-24T09:11:27.395Z,11.52
2018-03-24T09:13:29.283Z,11.36
2018-03-24T09:15:31.339Z,11.77
2018-03-24T09:17:34.129Z,11.65
2018-03-24T09:19:35.995Z,11.71
2018-03-24T09:21:37.806Z,11.50
2018-03-24T09:24:20.704Z,11.46
2018-03-24T09:26:22.628Z,11.46
2018-03-24T09:28:25.970Z,11.43
2018-03-24T09:30:28.591Z,11.65
2018-03-24T09:32:30.394Z,11.75
2018-03-24T09:34:32.060Z,11.89
2018-03-24T09:36:34.294Z,11.94
2018-03-24T09:38:36.153Z,12.11
2018-03-24T09:40:38.265Z,11.74
2018-03-24T09:42:40.331Z,11.83
2018-03-24T09:44:42.214Z,11.85
2018-03-24T09:46:44.163Z,12.12
2018-03-24T09:48:45.875Z,12.39
2018-03-24T09:50:47.815Z,12.52
2018-03-24T09:53:30.684Z,12.66
2018-03-24T09:56:13.982Z,12.38
2018-03-24T09:58:16.121Z,12.52
2018-03-24T10:00:17.779Z,12.64
2018-03-24T10:02:19.626Z,12.66
2018-03-24T10:04:21.446Z,12.70
2018-03-24T10:06:23.349Z,12.66
2018-03-24T10:08:25.563Z,12.44
2018-03-24T10:11:09.130Z,12.30
2018-03-24T10:13:10.725Z,12.42
2018-03-24T10:15:12.837Z,12.19
2018-03-24T10:17:14.964Z,12.06
2018-03-24T10:19:17.548Z,12.16
2018-03-24T10:21:19.517Z,12.11
2018-03-24T10:23:22.031Z,12.15
2018-03-24T10:25:23.976Z,12.38
2018-03-24T10:27:26.165Z,12.48
2018-03-24T10:29:28.368Z,12.26
2018-03-24T10:31:30.419Z,12.08
2018-03-24T10:33:32.619Z,12.09
2018-03-24T10:35:34.884Z,12.33
2018-03-24T10:37:37.032Z,12.39
2018-03-24T10:40:20.151Z,12.30
2018-03-24T10:42:21.694Z,12.29
2018-03-24T10:44:25.486Z,12.39
2018-03-24T10:46:27.086Z,12.62
2018-03-24T10:48:29.033Z,12.79
2018-03-24T10:50:31.429Z,12.78
2018-03-24T10:52:33.744Z,12.51
2018-03-24T10:55:59.299Z,12.78
2018-03-24T10:58:01.679Z,12.99
2018-03-24T11:00:04.205Z,13.20
2018-03-24T11:02:06.072Z,13.22
2018-03-24T11:04:07.934Z,13.41
2018-03-24T11:06:09.758Z,13.29
2018-03-24T11:08:53.664Z,13.12
2018-03-24T11:10:56.574Z,13.14
2018-03-24T11:12:58.387Z,13.24
2018-03-24T11:15:00.121Z,13.47
2018-03-24T11:17:02.010Z,13.40
2018-03-24T11:19:49.231Z,13.55
2018-03-24T11:21:51.651Z,13.44
2018-03-24T11:23:54.008Z,13.58
2018-03-24T11:25:56.041Z,13.52
2018-03-24T11:28:40.691Z,13.63
2018-03-24T11:30:43.768Z,13.91
2018-03-24T11:33:28.161Z,13.87
2018-03-24T16:42:48.838Z,13.41
2018-03-24T16:44:50.507Z,13.17
2018-03-24T16:46:51.978Z,13.25
2018-03-24T16:48:53.527Z,13.24
2018-03-24T16:50:55.024Z,13.36
2018-03-24T16:52:56.630Z,13.36
2018-03-24T16:54:58.210Z,13.15
2018-03-24T16:57:41.544Z,13.27
2018-03-24T16:59:43.114Z,13.30
2018-03-24T17:01:44.844Z,13.36
2018-03-24T17:03:46.356Z,13.38
2018-03-24T17:05:48.087Z,13.36
2018-03-24T17:07:49.815Z,13.29
2018-03-24T17:09:51.594Z,13.29
2018-03-24T17:11:53.389Z,13.37
2018-03-24T17:13:55.182Z,13.51
2018-03-24T17:15:56.980Z,13.58
2018-03-24T17:17:58.708Z,13.58
2018-03-24T17:20:00.432Z,13.47
2018-03-24T17:22:02.151Z,13.46
2018-03-24T17:24:03.887Z,13.51
2018-03-24T17:26:05.819Z,13.47
2018-03-24T17:28:07.563Z,13.38
2018-03-24T17:30:09.307Z,13.33
2018-03-24T17:32:11.031Z,13.41
2018-03-24T17:34:12.740Z,13.43
2018-03-24T17:36:14.750Z,13.58
2018-03-24T17:38:16.366Z,13.47
2018-03-24T17:40:18.068Z,13.47
2018-03-24T17:42:19.829Z,13.44
2018-03-24T17:44:21.572Z,13.37
2018-03-24T17:46:23.282Z,13.40
2018-03-24T17:48:24.930Z,13.47
2018-03-24T17:50:27.158Z,13.41
2018-03-24T17:52:28.879Z,13.40
2018-03-24T17:54:30.411Z,13.36
2018-03-24T17:56:32.096Z,13.37
2018-03-24T17:58:33.795Z,13.40
2018-03-24T18:00:35.619Z,13.29
2018-03-24T18:02:37.754Z,13.32
2018-03-24T18:04:39.462Z,13.25
2018-03-24T18:06:41.516Z,13.32
2018-03-24T18:09:24.481Z,13.27
2018-03-24T18:11:26.388Z,13.15
2018-03-24T18:13:28.235Z,13.14
2018-03-24T18:15:29.775Z,13.21
2018-03-24T18:17:31.296Z,13.15
2018-03-24T18:19:32.855Z,13.12
2018-03-24T18:21:34.427Z,13.07
2018-03-24T18:23:36.265Z,13.06
2018-03-24T18:25:38.100Z,13.03
2018-03-24T18:27:40.096Z,13.04
2018-03-24T18:29:41.749Z,12.88
2018-03-24T18:31:43.516Z,12.84
2018-03-24T18:33:45.256Z,12.81
2018-03-24T18:35:47.097Z,12.75
2018-03-24T18:38:30.779Z,12.88
2018-03-24T18:40:32.196Z,12.66
2018-03-24T18:42:33.723Z,12.62
2018-03-24T18:44:35.571Z,12.66
2018-03-24T18:46:37.001Z,12.66
2018-03-24T18:48:38.442Z,12.64
2018-03-24T18:50:39.954Z,12.56
2018-03-24T18:52:41.459Z,12.57
2018-03-24T18:54:43.136Z,12.39
2018-03-24T18:56:44.918Z,12.41
2018-03-24T18:58:46.656Z,12.41
2018-03-24T19:00:48.326Z,12.37
2018-03-24T19:02:50.069Z,12.39
2018-03-24T19:04:51.747Z,12.30
2018-03-24T19:07:34.129Z,12.27
2018-03-24T19:09:36.198Z,12.16
2018-03-24T19:11:37.642Z,12.15
2018-03-24T19:13:39.243Z,12.15
2018-03-24T19:15:40.711Z,12.11
2018-03-24T19:17:42.859Z,12.12
2018-03-24T19:19:45.145Z,12.13
2018-03-24T19:21:47.443Z,12.09
2018-03-24T19:23:49.002Z,12.08
2018-03-24T19:25:50.798Z,12.13
2018-03-24T19:27:53.320Z,12.11
2018-03-24T19:29:55.069Z,12.13
2018-03-24T19:31:56.740Z,12.09
2018-03-24T19:33:58.405Z,12.05
2018-03-24T19:36:00.126Z,11.90
2018-03-24T19:38:42.574Z,11.94
2018-03-24T19:40:44.832Z,11.80
2018-03-24T19:42:46.298Z,11.83
2018-03-24T19:44:48.107Z,11.75
2018-03-24T19:46:49.812Z,11.74
2018-03-24T19:48:51.714Z,11.74
2018-03-24T19:50:53.473Z,11.74
2018-03-24T19:52:55.725Z,11.72
2018-03-24T19:54:57.390Z,11.65
2018-03-24T19:56:59.365Z,11.64
2018-03-24T19:59:01.510Z,11.70
2018-03-24T20:01:03.762Z,11.67
2018-03-24T20:03:05.496Z,11.64
2018-03-24T20:05:07.327Z,11.50
2018-03-24T20:07:08.959Z,11.52
2018-03-24T20:09:10.688Z,11.49
2018-03-24T20:11:12.425Z,11.35
2018-03-24T20:13:14.170Z,11.34
2018-03-24T20:15:15.962Z,11.34
2018-03-24T20:17:17.632Z,11.29
2018-03-24T20:19:19.197Z,11.29
2018-03-24T20:21:20.924Z,11.09
2018-03-24T20:23:22.755Z,11.10
2018-03-24T20:25:24.468Z,11.17
2018-03-24T20:27:26.310Z,11.09
2018-03-24T20:29:28.013Z,10.99
2018-03-24T20:31:29.716Z,11.01
2018-03-24T20:33:31.490Z,10.99
2018-03-24T20:35:33.260Z,10.98
2018-03-24T20:37:35.100Z,10.92
2018-03-24T20:39:36.733Z,10.94
2018-03-24T20:41:38.535Z,10.95
2018-03-24T20:43:40.241Z,10.76
2018-03-24T20:45:41.873Z,10.76
2018-03-24T20:47:43.791Z,10.68
2018-03-24T20:49:45.464Z,10.74
2018-03-24T20:51:47.355Z,10.68
2018-03-24T20:53:49.233Z,10.66
2018-03-24T20:55:51.220Z,10.56
2018-03-24T20:57:53.006Z,10.52
2018-03-24T20:59:54.777Z,10.46
2018-03-24T21:01:56.620Z,10.36
2018-03-24T21:03:58.684Z,10.40
2018-03-24T21:06:00.534Z,10.36
2018-03-24T21:08:02.165Z,10.26
2018-03-24T21:10:03.920Z,10.33
2018-03-24T21:12:05.586Z,10.21
2018-03-24T21:14:07.213Z,10.14
2018-03-24T21:16:08.949Z,10.10
2018-03-24T21:18:10.571Z,10.07
2018-03-24T21:20:12.225Z,10.12
2018-03-24T21:22:13.879Z,10.09
2018-03-24T21:24:15.645Z,9.99
2018-03-24T21:26:17.440Z,9.96
2018-03-24T21:28:19.109Z,9.93
2018-03-24T21:30:21.196Z,9.94
2018-03-24T21:32:22.929Z,9.88
2018-03-24T21:34:24.524Z,9.86
2018-03-24T21:36:26.213Z,9.83
2018-03-24T21:38:27.920Z,9.61
2018-03-24T21:40:29.522Z,9.60
2018-03-24T21:42:31.374Z,9.66
2018-03-24T21:44:33.193Z,9.67
2018-03-24T21:46:34.978Z,9.63
2018-03-24T21:48:36.634Z,9.68
2018-03-24T21:50:38.326Z,9.63
2018-03-24T21:52:39.817Z,9.53
2018-03-24T21:54:41.449Z,9.61
2018-03-24T21:56:43.233Z,9.58
2018-03-24T21:58:44.927Z,9.58
2018-03-24T22:00:46.501Z,9.45
2018-03-24T22:02:48.198Z,9.42
2018-03-24T22:04:49.888Z,9.45
2018-03-24T22:06:51.526Z,9.48
2018-03-24T22:08:53.244Z,9.34
2018-03-24T22:10:54.945Z,9.27
2018-03-24T22:12:56.604Z,9.32
2018-03-24T22:14:58.207Z,9.25
2018-03-24T22:17:00.168Z,9.23
2018-03-24T22:19:01.787Z,9.16
2018-03-24T22:21:03.568Z,9.21
2018-03-24T22:23:05.425Z,9.15
2018-03-24T22:25:07.033Z,9.01
2018-03-24T22:27:08.735Z,9.09
2018-03-24T22:29:10.310Z,9.06
2018-03-24T22:31:12.031Z,9.05
2018-03-24T22:33:13.688Z,9.01
2018-03-24T22:35:15.359Z,8.93
2018-03-24T22:37:17.179Z,8.94
2018-03-24T22:39:19.106Z,8.90
2018-03-24T22:41:20.876Z,8.88
2018-03-24T22:43:22.556Z,8.78
2018-03-24T22:45:24.429Z,8.76
2018-03-24T22:47:26.430Z,8.69
2018-03-24T22:49:28.187Z,8.68
2018-03-24T22:51:30.077Z,8.62
2018-03-24T22:53:31.680Z,8.63
2018-03-24T22:55:33.362Z,8.60
2018-03-24T22:57:35.255Z,8.58
2018-03-24T22:59:37.049Z,8.57
2018-03-24T23:02:19.472Z,8.63
2018-03-24T23:04:20.916Z,8.54
2018-03-24T23:06:22.356Z,8.51
2018-03-24T23:08:23.966Z,8.47
2018-03-24T23:10:25.455Z,8.35
2018-03-24T23:12:27.159Z,8.29
2018-03-24T23:14:28.643Z,8.28
2018-03-24T23:16:30.406Z,8.22
2018-03-24T23:18:32.036Z,8.26
2018-03-24T23:20:33.848Z,8.25
2018-03-24T23:22:35.696Z,8.28
2018-03-24T23:24:37.523Z,8.28
2018-03-24T23:26:39.064Z,8.17
2018-03-24T23:28:40.683Z,8.18
2018-03-24T23:30:42.354Z,8.15
2018-03-24T23:32:43.987Z,8.26
2018-03-24T23:34:45.620Z,8.15
2018-03-24T23:36:47.304Z,8.25
2018-03-24T23:38:49.034Z,8.22
2018-03-24T23:41:31.468Z,8.28
2018-03-24T23:43:33.083Z,8.25
2018-03-24T23:45:34.521Z,8.25
2018-03-24T23:47:36.107Z,8.30
2018-03-24T23:50:17.860Z,8.28
2018-03-24T23:52:19.246Z,8.26
2018-03-24T23:54:20.920Z,8.26
2018-03-24T23:56:22.328Z,8.25
2018-03-24T23:58:23.788Z,8.20
